Asher, Kentucky
Current Conditions -  °F | °C
As of 8:35 PM on Thursday 27 Nov 2014 (Local Time) from KI35 Reporting Station
Overcast Overcast  
Wind Chill: -1°   Ceiling: 1900
Heat Index: -1°   Visibility: 10mi
Dew Point: -5°   Wind: 3mph
Humidity: 75%   Direction: 270°W
Pressure: 30.35"   Gusts: NA
Location:  37.04°N, 83.4°W
Report Text: KI35 280135Z AUTO 27003KT 10SM BKN019 BKN027 OVC041 M01/M05 A3035 RMK AO1
Loading
Personal Weather Stations






























Interactive Weather Map New forecast layout! Learn more

10-Day Weather Forecast

Advertisements
Track Severe Weather on mobile